Time;durP1;ratioP1;P1;durP2;ratioP2;P2;SDS_P1;SDS_P2;PMS_P1;PMS_P2;Temp;Humidity;BMP_temperature;BMP_pressure;BME280_temperature;BME280_humidity;BME280_pressure;Samples;Min_cycle;Max_cycle;Signal;HPM_P1;HPM_P2
2022/12/22 03:27:09;;;;;;;85.45;39.80;;;11.70;55.50;;;;;;5073435;28;20043;-84
2022/12/22 03:29:34;;;;;;;85.60;41.15;;;11.70;55.60;;;;;;5064323;28;20017;-82
2022/12/22 03:32:00;;;;;;;82.93;38.72;;;11.70;55.60;;;;;;5069103;28;20028;-93
2022/12/22 03:34:26;;;;;;;83.22;39.60;;;11.60;56.00;;;;;;5073685;28;20021;-83
2022/12/22 03:36:51;;;;;;;93.10;41.35;;;11.50;56.50;;;;;;5061280;28;20499;-84
2022/12/22 03:39:17;;;;;;;92.70;43.25;;;11.50;56.50;;;;;;5053229;28;20526;-84
2022/12/22 03:47:11;;;;;;;93.18;40.60;;;11.80;56.10;;;;;;5058219;28;20032;-94
2022/12/22 03:49:36;;;;;;;91.10;42.47;;;11.80;56.20;;;;;;5056200;28;20029;-91
2022/12/22 03:52:03;;;;;;;86.57;41.15;;;11.90;56.20;;;;;;5057347;28;20094;-83
2022/12/22 03:54:29;;;;;;;96.18;42.38;;;11.90;55.90;;;;;;5055782;28;20017;-84
2022/12/22 03:56:54;;;;;;;90.25;40.22;;;11.90;56.30;;;;;;5055612;28;20494;-84
2022/12/22 03:59:57;;;;;;;;;;;;;;;;;;;;;
2022/12/22 04:02:23;;;;;;;93.32;42.75;;;12.00;55.80;;;;;;5053878;28;20053;-83
2022/12/22 04:04:49;;;;;;;88.80;39.75;;;12.10;55.60;;;;;;5055626;28;20108;-84
2022/12/22 04:07:14;;;;;;;88.40;40.75;;;11.90;55.90;;;;;;5055839;28;20521;-82
2022/12/22 04:12:53;;;;;;;94.03;42.08;;;11.80;56.10;;;;;;5055979;28;20055;-84
2022/12/22 04:15:10;;;;;;;89.57;39.97;;;11.60;56.80;;;;;;5057061;28;20043;-82
2022/12/22 04:17:35;;;;;;;87.72;40.28;;;11.60;56.50;;;;;;5055468;28;20021;-83
2022/12/22 04:20:01;;;;;;;84.95;39.45;;;11.70;56.40;;;;;;5055793;28;20060;-84
2022/12/22 04:22:27;;;;;;;93.78;43.17;;;11.70;55.90;;;;;;5056884;28;20392;-84
2022/12/22 04:24:52;;;;;;;90.28;41.53;;;11.70;56.50;;;;;;5055088;28;20029;-89
2022/12/22 04:27:18;;;;;;;91.82;39.92;;;11.60;56.80;;;;;;5056507;28;20051;-83
2022/12/22 04:29:43;;;;;;;95.82;42.33;;;11.60;56.80;;;;;;5055647;28;20116;-93
2022/12/22 04:32:09;;;;;;;101.90;44.83;;;11.60;56.90;;;;;;5055901;28;20112;-94
2022/12/22 04:34:35;;;;;;;97.60;43.35;;;11.70;56.70;;;;;;5055005;28;20610;-83
2022/12/22 04:37:00;;;;;;;83.68;40.05;;;11.80;56.30;;;;;;5055220;28;20112;-83
2022/12/22 04:39:26;;;;;;;94.82;41.20;;;11.80;56.10;;;;;;5055882;28;20503;-83
2022/12/22 04:41:51;;;;;;;85.40;40.47;;;11.40;57.30;;;;;;5055360;28;20476;-83
2022/12/22 04:44:17;;;;;;;87.53;41.17;;;11.20;57.50;;;;;;5056546;28;20480;-84
2022/12/22 04:46:43;;;;;;;92.07;41.67;;;11.40;57.30;;;;;;5055149;28;20025;-86
2022/12/22 04:49:08;;;;;;;88.50;38.53;;;11.50;57.10;;;;;;5054956;28;20029;-83
2022/12/22 04:51:34;;;;;;;101.70;42.90;;;11.60;57.00;;;;;;5055251;28;20021;-84
2022/12/22 04:54:00;;;;;;;100.10;44.63;;;11.60;57.20;;;;;;5055854;28;20025;-93
2022/12/22 04:56:25;;;;;;;100.03;44.65;;;11.60;57.00;;;;;;5054819;28;20021;-94
2022/12/22 04:58:51;;;;;;;95.70;44.40;;;11.70;56.60;;;;;;5055773;28;20025;-84
2022/12/22 05:01:17;;;;;;;88.57;42.40;;;11.60;57.00;;;;;;5040427;28;20049;-87
2022/12/22 05:03:44;;;;;;;127.13;55.92;;;11.50;57.50;;;;;;5038194;28;20483;-81
2022/12/22 05:06:10;;;;;;;149.93;63.72;;;11.60;57.40;;;;;;5054417;28;20040;-82
2022/12/22 05:08:36;;;;;;;147.05;63.50;;;11.60;56.80;;;;;;5037685;28;20112;-81
2022/12/22 05:11:01;;;;;;;141.68;60.78;;;11.60;56.60;;;;;;5045877;28;20013;-89
2022/12/22 05:13:28;;;;;;;144.57;61.70;;;11.60;56.80;;;;;;5035614;28;20056;-82
2022/12/22 05:15:54;;;;;;;126.70;56.08;;;11.60;57.10;;;;;;5035735;28;20384;-83
2022/12/22 05:18:19;;;;;;;126.03;54.10;;;11.60;56.90;;;;;;5034148;28;20041;-82
2022/12/22 05:20:45;;;;;;;104.20;46.65;;;11.70;56.90;;;;;;5050882;28;20044;-88
2022/12/22 05:23:11;;;;;;;115.78;48.00;;;11.70;56.90;;;;;;5052755;28;20486;-82
2022/12/22 05:25:37;;;;;;;112.47;48.53;;;11.70;57.00;;;;;;5034139;28;20026;-82
2022/12/22 05:28:02;;;;;;;106.25;47.88;;;11.80;56.70;;;;;;5035327;28;20029;-82
2022/12/22 05:30:28;;;;;;;106.03;46.08;;;11.70;56.90;;;;;;5033893;28;20393;-82
2022/12/22 05:32:54;;;;;;;90.68;43.40;;;11.70;56.70;;;;;;5035229;28;20381;-82
2022/12/22 05:35:19;;;;;;;102.60;47.63;;;11.70;56.90;;;;;;5035035;28;20116;-82
2022/12/22 05:37:45;;;;;;;88.65;40.60;;;11.60;57.40;;;;;;5033860;28;20021;-82
2022/12/22 05:40:11;;;;;;;97.40;44.13;;;11.70;56.90;;;;;;5034939;28;20034;-91
2022/12/22 05:42:38;;;;;;;97.68;45.40;;;11.50;57.60;;;;;;5042744;28;20475;-83
2022/12/22 05:45:35;;;;;;;98.90;43.95;;;11.60;57.30;;;;;;5054666;28;20025;-83
2022/12/22 05:48:01;;;;;;;94.32;43.97;;;11.80;56.60;;;;;;5069405;28;20033;-83
2022/12/22 05:50:26;;;;;;;99.38;43.22;;;11.90;56.20;;;;;;5069543;28;20029;-85
2022/12/22 05:52:53;;;;;;;95.72;42.83;;;11.70;56.90;;;;;;5037361;28;20037;-84
2022/12/22 05:55:19;;;;;;;101.38;46.10;;;11.50;57.70;;;;;;5043988;28;20434;-82
2022/12/22 05:57:44;;;;;;;95.38;43.10;;;11.50;57.60;;;;;;5054885;28;20468;-91
2022/12/22 06:00:14;;;;;;;102.40;46.05;;;11.40;57.80;;;;;;5054885;28;20049;-89
2022/12/22 06:02:41;;;;;;;98.77;44.83;;;11.50;57.70;;;;;;5054954;28;20021;-92
2022/12/22 06:05:08;;;;;;;103.88;45.35;;;11.50;57.60;;;;;;5053366;28;20025;-84
2022/12/22 06:07:34;;;;;;;102.78;49.20;;;11.50;57.30;;;;;;5054754;28;20407;-85
2022/12/22 06:10:00;;;;;;;105.82;49.17;;;11.50;57.50;;;;;;5053636;28;20060;-89
2022/12/22 06:12:25;;;;;;;103.97;45.75;;;11.50;57.50;;;;;;5054231;28;20088;-90
2022/12/22 06:14:51;;;;;;;107.63;47.70;;;11.60;57.10;;;;;;5045562;28;20070;-91
2022/12/22 06:17:17;;;;;;;95.78;44.47;;;11.50;57.00;;;;;;5053434;28;20035;-88
2022/12/22 06:19:42;;;;;;;112.70;49.78;;;11.40;57.30;;;;;;5068755;28;20047;-87
2022/12/22 06:22:08;;;;;;;97.47;44.80;;;11.40;57.60;;;;;;5088335;28;20494;-84
2022/12/22 06:24:34;;;;;;;121.32;48.60;;;11.40;57.60;;;;;;5090479;28;20525;-82
2022/12/22 06:27:00;;;;;;;119.50;54.03;;;11.20;58.10;;;;;;5089324;28;20027;-91
2022/12/22 06:29:26;;;;;;;109.65;50.92;;;11.10;58.20;;;;;;5075403;28;20443;-91
2022/12/22 06:31:51;;;;;;;103.32;49.90;;;11.00;57.60;;;;;;5090843;28;20063;-83
2022/12/22 06:34:17;;;;;;;104.10;48.22;;;11.00;58.10;;;;;;5080541;28;20036;-86
2022/12/22 06:36:44;;;;;;;121.57;56.08;;;11.10;57.50;;;;;;5055591;28;20036;-81
2022/12/22 06:39:10;;;;;;;124.25;60.70;;;11.40;57.20;;;;;;5050082;28;20542;-80
2022/12/22 06:44:20;;;;;;;170.60;84.65;;;11.70;56.60;;;;;;5043016;28;20086;-80
2022/12/22 06:46:46;;;;;;;133.70;64.90;;;11.80;56.20;;;;;;5051931;28;20491;-83
2022/12/22 06:49:11;;;;;;;149.05;71.97;;;11.80;56.40;;;;;;5052895;28;20085;-91
2022/12/22 06:51:37;;;;;;;169.90;79.32;;;11.90;56.10;;;;;;5047937;28;20029;-86
2022/12/22 06:54:03;;;;;;;167.20;76.70;;;11.90;56.40;;;;;;5048735;28;20090;-81
2022/12/22 06:56:29;;;;;;;119.35;55.60;;;11.90;56.40;;;;;;5052475;28;20025;-81
2022/12/22 06:58:54;;;;;;;109.13;53.30;;;11.90;56.10;;;;;;5040656;28;20503;-84
2022/12/22 07:01:20;;;;;;;109.68;52.22;;;12.00;56.10;;;;;;5044875;28;20067;-83
2022/12/22 07:03:46;;;;;;;115.35;52.10;;;12.00;56.20;;;;;;5046907;28;20034;-87
2022/12/22 07:06:12;;;;;;;113.28;52.40;;;12.10;56.20;;;;;;4713353;28;10000252;-88
2022/12/22 07:08:37;;;;;;;111.68;52.42;;;12.10;56.10;;;;;;5051876;28;20052;-81
2022/12/22 07:11:06;;;;;;;104.50;45.60;;;12.20;56.00;;;;;;5050884;28;20519;-83
2022/12/22 07:13:33;;;;;;;102.07;46.42;;;12.20;55.80;;;;;;5050618;28;20078;-81
2022/12/22 07:16:00;;;;;;;117.32;62.08;;;12.10;56.00;;;;;;5052753;28;20097;-83
2022/12/22 07:18:27;;;;;;;96.10;47.03;;;12.10;56.00;;;;;;5052526;28;20480;-86
2022/12/22 07:20:53;;;;;;;99.68;47.80;;;12.10;56.00;;;;;;5052036;28;20034;-89
2022/12/22 07:23:19;;;;;;;105.75;48.10;;;12.10;56.20;;;;;;5038261;28;20032;-82
2022/12/22 07:25:45;;;;;;;97.18;47.83;;;12.10;56.10;;;;;;5040978;28;20383;-87
2022/12/22 07:28:10;;;;;;;101.32;48.90;;;12.20;56.20;;;;;;5051680;28;20033;-86
2022/12/22 07:30:39;;;;;;;101.82;49.28;;;12.30;55.80;;;;;;5039760;28;20108;-83
2022/12/22 07:33:05;;;;;;;101.05;48.58;;;12.00;56.20;;;;;;5048075;28;20055;-90
2022/12/22 07:35:30;;;;;;;103.13;49.92;;;12.00;56.40;;;;;;5053542;28;20025;-89
2022/12/22 07:37:56;;;;;;;119.65;58.08;;;12.00;56.10;;;;;;5055715;28;20019;-83
2022/12/22 07:40:22;;;;;;;107.63;52.47;;;12.20;55.80;;;;;;5057044;28;20078;-86
2022/12/22 07:42:47;;;;;;;94.55;46.85;;;12.20;55.60;;;;;;5050881;28;20116;-83
2022/12/22 07:45:18;;;;;;;106.30;50.05;;;12.00;55.90;;;;;;5046350;28;20476;-89
2022/12/22 07:47:45;;;;;;;98.97;48.67;;;11.90;56.00;;;;;;5053485;28;20033;-87
2022/12/22 07:50:31;;;;;;;106.43;50.70;;;11.70;56.30;;;;;;5055553;28;20074;-83
2022/12/22 07:53:02;;;;;;;96.57;48.05;;;11.40;56.40;;;;;;5054767;28;20530;-84
2022/12/22 07:55:31;;;;;;;103.82;48.08;;;11.10;57.70;;;;;;5055399;28;20037;-84
2022/12/22 07:57:57;;;;;;;106.07;51.60;;;10.90;58.20;;;;;;5055140;28;20028;-81
2022/12/22 08:00:23;;;;;;;101.75;50.65;;;11.00;58.30;;;;;;5044348;28;20045;-83
2022/12/22 08:02:54;;;;;;;103.00;50.28;;;11.30;57.90;;;;;;5041010;28;20023;-82
2022/12/22 08:05:21;;;;;;;97.72;48.95;;;11.60;56.70;;;;;;5052702;28;20025;-83
2022/12/22 08:07:50;;;;;;;105.35;51.80;;;11.60;57.30;;;;;;5055608;28;20424;-86
2022/12/22 08:10:17;;;;;;;94.88;47.53;;;11.70;57.00;;;;;;5046409;28;20032;-84
2022/12/22 08:12:43;;;;;;;97.88;49.20;;;11.80;56.70;;;;;;5038858;28;20033;-82
2022/12/22 08:15:10;;;;;;;100.20;49.90;;;11.90;56.60;;;;;;5040622;28;20025;-86
2022/12/22 08:17:36;;;;;;;93.38;47.83;;;12.00;56.40;;;;;;5045880;28;20028;-87
2022/12/22 08:20:04;;;;;;;94.47;47.28;;;12.10;56.10;;;;;;5056373;28;20036;-84
2022/12/22 08:22:29;;;;;;;89.15;43.58;;;12.10;55.90;;;;;;5055450;28;20025;-88
2022/12/22 08:24:56;;;;;;;89.60;44.63;;;12.10;55.60;;;;;;5051734;28;20033;-84
2022/12/22 08:27:38;;;;;;;90.72;47.25;;;12.00;55.90;;;;;;5039194;28;20427;-82
2022/12/22 08:30:07;;;;;;;84.03;43.75;;;12.00;55.90;;;;;;5035485;28;20068;-86
2022/12/22 08:32:34;;;;;;;86.70;45.95;;;12.00;56.30;;;;;;5049705;28;20115;-85
2022/12/22 08:35:01;;;;;;;96.38;48.42;;;12.00;56.20;;;;;;5056299;28;20021;-89
2022/12/22 08:37:31;;;;;;;92.15;48.25;;;12.00;56.00;;;;;;5053634;28;20021;-89
2022/12/22 08:40:03;;;;;;;106.60;54.88;;;12.10;55.60;;;;;;5041233;28;20037;-88
2022/12/22 08:42:29;;;;;;;106.05;54.03;;;12.00;55.70;;;;;;5055914;28;20468;-82
2022/12/22 08:44:55;;;;;;;95.93;49.92;;;11.90;56.10;;;;;;5054897;28;20111;-86
2022/12/22 08:47:21;;;;;;;104.00;52.28;;;11.90;56.10;;;;;;5054522;28;20112;-88
2022/12/22 08:49:48;;;;;;;95.50;47.10;;;12.10;55.70;;;;;;5038321;28;20033;-84
2022/12/22 08:52:15;;;;;;;104.47;51.78;;;12.20;55.30;;;;;;5034566;28;20446;-83
2022/12/22 08:54:41;;;;;;;107.85;55.10;;;12.10;55.20;;;;;;5034395;28;20036;-82
2022/12/22 08:57:06;;;;;;;104.43;53.25;;;12.00;55.80;;;;;;5035862;28;20021;-88
2022/12/22 08:59:32;;;;;;;99.20;50.22;;;12.00;56.20;;;;;;5035477;28;20038;-86
2022/12/22 09:02:03;;;;;;;91.47;49.03;;;12.10;56.50;;;;;;5034648;28;20148;-84
2022/12/22 09:04:31;;;;;;;93.55;47.50;;;12.00;56.80;;;;;;5035788;28;20079;-84
2022/12/22 09:06:56;;;;;;;89.70;46.65;;;12.10;57.10;;;;;;5035823;28;20029;-83
2022/12/22 09:09:22;;;;;;;96.20;48.85;;;12.00;56.60;;;;;;5034445;28;20033;-83
2022/12/22 09:11:48;;;;;;;94.00;50.45;;;12.00;56.90;;;;;;5034606;28;20030;-83
2022/12/22 09:14:14;;;;;;;98.82;51.95;;;11.90;56.60;;;;;;5034215;28;20022;-82
2022/12/22 09:16:40;;;;;;;160.57;52.58;;;11.40;57.60;;;;;;5034293;28;20025;-83
2022/12/22 09:19:06;;;;;;;92.65;48.78;;;11.20;58.40;;;;;;5034060;28;20379;-83
2022/12/22 09:21:33;;;;;;;81.70;45.17;;;11.20;58.80;;;;;;5034204;28;20377;-87
2022/12/22 09:23:59;;;;;;;93.60;47.65;;;11.40;58.70;;;;;;5034375;28;20468;-86
2022/12/22 09:26:27;;;;;;;96.85;50.67;;;11.60;58.10;;;;;;5035203;28;20079;-83
2022/12/22 09:28:53;;;;;;;96.72;48.35;;;11.80;57.60;;;;;;5035304;28;20380;-84
2022/12/22 09:31:20;;;;;;;92.90;49.35;;;12.00;56.80;;;;;;5035595;28;20056;-83
2022/12/22 09:33:46;;;;;;;94.53;49.22;;;12.00;56.70;;;;;;5035182;28;20100;-82
2022/12/22 09:36:18;;;;;;;95.25;49.28;;;12.00;56.60;;;;;;5033913;28;20035;-85
2022/12/22 09:38:44;;;;;;;86.82;47.13;;;11.90;57.20;;;;;;5039953;28;20023;-82
2022/12/22 09:41:41;;;;;;;85.90;44.03;;;12.20;56.40;;;;;;5054404;28;20040;-87
2022/12/22 09:44:22;;;;;;;93.57;48.20;;;12.30;56.70;;;;;;5042843;28;20055;-83
2022/12/22 09:46:49;;;;;;;92.75;46.72;;;12.70;56.10;;;;;;4367355;28;10000971;-81
2022/12/22 09:49:17;;;;;;;87.10;44.95;;;13.00;56.10;;;;;;5043977;28;20074;-82
2022/12/22 09:51:46;;;;;;;98.82;48.90;;;12.90;56.00;;;;;;5041340;28;20029;-83
2022/12/22 09:54:13;;;;;;;104.00;49.25;;;12.70;55.80;;;;;;5033194;28;20473;-81
2022/12/22 09:56:39;;;;;;;91.10;47.45;;;12.30;56.50;;;;;;5039376;28;20455;-81
2022/12/22 09:59:16;;;;;;;79.18;42.75;;;12.00;56.80;;;;;;5045978;28;20113;-82
2022/12/22 10:01:50;;;;;;;84.85;45.38;;;11.30;58.30;;;;;;5034296;28;20445;-84
2022/12/22 10:04:28;;;;;;;81.88;42.53;;;11.40;59.60;;;;;;5039030;28;20029;-82
2022/12/22 10:07:22;;;;;;;77.07;40.70;;;11.90;58.20;;;;;;4703336;28;10000349;-83
2022/12/22 10:09:47;;;;;;;82.22;42.75;;;12.40;57.70;;;;;;5052261;28;20033;-84
2022/12/22 10:12:19;;;;;;;74.85;40.88;;;13.10;56.10;;;;;;5051853;28;20021;-85
2022/12/22 10:14:47;;;;;;;73.13;39.55;;;13.30;55.00;;;;;;5052419;28;20423;-79
2022/12/22 10:17:19;;;;;;;69.45;38.92;;;13.40;54.80;;;;;;5051839;28;20025;-83
2022/12/22 10:19:45;;;;;;;66.60;36.38;;;13.50;54.60;;;;;;5052115;28;20064;-80
2022/12/22 10:22:23;;;;;;;79.90;45.20;;;13.40;54.50;;;;;;5052565;28;20025;-86
2022/12/22 10:24:49;;;;;;;75.55;40.47;;;13.20;54.40;;;;;;5052243;28;20024;-85
2022/12/22 10:27:16;;;;;;;73.93;41.10;;;12.80;55.40;;;;;;5052146;28;20033;-84
2022/12/22 10:29:42;;;;;;;86.35;43.03;;;13.00;55.30;;;;;;5037460;28;20672;-85
2022/12/22 10:32:15;;;;;;;84.50;43.50;;;13.10;55.10;;;;;;5046028;28;20025;-83
2022/12/22 10:35:17;;;;;;;78.88;40.45;;;13.20;54.50;;;;;;5051728;28;20025;-81
2022/12/22 10:37:42;;;;;;;72.55;35.40;;;12.90;55.20;;;;;;5011506;28;20068;-79
2022/12/22 10:40:18;;;;;;;60.42;32.13;;;13.10;55.70;;;;;;4977772;28;20050;-81
2022/12/22 10:42:54;;;;;;;83.55;38.28;;;13.80;53.30;;;;;;4986091;28;20600;-80
2022/12/22 10:45:25;;;;;;;66.53;35.78;;;14.00;52.90;;;;;;4995735;28;20393;-80
2022/12/22 10:47:54;;;;;;;85.30;40.85;;;14.30;52.80;;;;;;5011735;28;20196;-81
2022/12/22 10:50:21;;;;;;;67.80;35.38;;;14.50;52.20;;;;;;5011213;28;20032;-82
2022/12/22 10:52:55;;;;;;;74.90;38.88;;;14.40;52.00;;;;;;4995270;28;20034;-81
2022/12/22 10:55:24;;;;;;;73.75;37.10;;;14.10;52.10;;;;;;4995351;28;20036;-81
2022/12/22 10:57:50;;;;;;;80.38;39.90;;;13.20;53.60;;;;;;4995334;28;20385;-81
2022/12/22 11:00:27;;;;;;;66.57;36.30;;;12.80;55.20;;;;;;5011411;28;20552;-81
2022/12/22 11:02:57;;;;;;;74.15;39.13;;;13.30;54.40;;;;;;4995234;28;20053;-80
2022/12/22 11:05:23;;;;;;;75.30;39.25;;;13.30;54.00;;;;;;5011832;28;20053;-80
2022/12/22 11:07:49;;;;;;;69.75;38.13;;;13.20;54.50;;;;;;4995286;28;20022;-80
2022/12/22 11:10:25;;;;;;;83.03;43.50;;;13.00;54.70;;;;;;4995371;28;20025;-81
2022/12/22 11:13:18;;;;;;;77.70;42.00;;;12.70;55.00;;;;;;5051397;28;20037;-83
2022/12/22 11:16:07;;;;;;;72.40;37.38;;;12.40;55.90;;;;;;5051719;28;20025;-81
2022/12/22 11:18:45;;;;;;;81.30;41.58;;;12.20;56.80;;;;;;5051525;28;20116;-82
2022/12/22 11:21:29;;;;;;;74.80;39.00;;;12.40;56.30;;;;;;5051799;28;20041;-80
2022/12/22 11:24:09;;;;;;;70.85;37.05;;;12.90;55.30;;;;;;5051525;28;20423;-81
2022/12/22 11:26:56;;;;;;;77.28;39.85;;;13.10;55.00;;;;;;5051892;28;20035;-81
2022/12/22 11:29:51;;;;;;;72.80;39.70;;;13.00;55.00;;;;;;5051085;28;20435;-81
2022/12/22 11:32:38;;;;;;;81.32;40.67;;;13.20;54.70;;;;;;5049698;28;20431;-81
2022/12/22 11:35:21;;;;;;;81.20;41.42;;;13.40;54.30;;;;;;5052652;28;20029;-82
2022/12/22 11:37:59;;;;;;;82.72;42.90;;;13.40;54.30;;;;;;5052400;28;20368;-81
2022/12/22 11:41:01;;;;;;;82.13;41.42;;;13.20;54.90;;;;;;5051325;28;20037;-81
2022/12/22 11:43:38;;;;;;;76.10;40.33;;;12.90;54.50;;;;;;5046128;28;20078;-81
2022/12/22 11:46:29;;;;;;;75.88;39.38;;;12.30;56.30;;;;;;5051999;28;20029;-80
2022/12/22 11:49:16;;;;;;;81.05;41.22;;;12.60;56.40;;;;;;5051596;28;20017;-80
2022/12/22 11:51:50;;;;;;;81.00;41.63;;;12.90;56.10;;;;;;5053539;28;20060;-81
2022/12/22 11:54:57;;;;;;;79.55;40.97;;;13.20;55.30;;;;;;5052703;28;20067;-81
2022/12/22 11:57:31;;;;;;;77.53;39.75;;;13.30;54.70;;;;;;5052514;28;20032;-81
2022/12/22 12:00:23;;;;;;;78.50;42.03;;;13.20;55.00;;;;;;5052557;28;20078;-81
2022/12/22 12:03:26;;;;;;;86.63;44.78;;;13.50;54.90;;;;;;5049732;28;20512;-82
2022/12/22 12:06:16;;;;;;;85.28;42.92;;;13.40;54.70;;;;;;5054925;28;20029;-82
2022/12/22 12:09:26;;;;;;;79.07;43.15;;;13.50;54.90;;;;;;5055191;28;20067;-82
2022/12/22 12:12:11;;;;;;;80.43;43.08;;;13.50;54.50;;;;;;5041817;28;20127;-83
2022/12/22 12:14:45;;;;;;;85.95;44.10;;;13.40;55.00;;;;;;5056271;28;20029;-86
2022/12/22 12:17:23;;;;;;;87.10;44.38;;;13.40;54.50;;;;;;5056045;28;20025;-82
2022/12/22 12:19:51;;;;;;;84.47;44.15;;;13.60;54.40;;;;;;5054695;28;20041;-82
2022/12/22 12:22:38;;;;;;;83.88;44.08;;;13.40;54.30;;;;;;5054867;28;20029;-82
2022/12/22 12:25:31;;;;;;;90.20;44.40;;;13.20;54.90;;;;;;5054916;28;20085;-81
2022/12/22 12:28:23;;;;;;;96.75;46.47;;;12.90;55.40;;;;;;5051216;28;20029;-82
2022/12/22 12:30:49;;;;;;;80.70;42.95;;;13.20;54.70;;;;;;5054761;28;20361;-82
2022/12/22 12:33:23;;;;;;;96.60;48.05;;;13.20;54.90;;;;;;5055917;28;20021;-82
2022/12/22 12:36:00;;;;;;;85.50;43.80;;;13.10;55.20;;;;;;5055961;28;20187;-82
2022/12/22 12:38:47;;;;;;;95.00;45.17;;;13.30;55.00;;;;;;5055676;28;20048;-82
2022/12/22 12:41:49;;;;;;;87.68;44.97;;;13.50;54.60;;;;;;5054424;28;20029;-82
2022/12/22 12:44:18;;;;;;;90.43;44.30;;;13.40;54.90;;;;;;4337325;28;10001173;-82
2022/12/22 12:46:53;;;;;;;93.20;45.13;;;13.60;54.70;;;;;;5032817;28;20068;-83
2022/12/22 12:49:34;;;;;;;93.50;48.70;;;13.60;54.60;;;;;;5034232;28;20037;-83
2022/12/22 12:52:07;;;;;;;91.55;45.83;;;13.80;54.30;;;;;;5035678;28;20026;-82
2022/12/22 12:54:39;;;;;;;101.72;49.60;;;12.70;55.80;;;;;;5034368;28;20032;-83
2022/12/22 12:57:25;;;;;;;105.85;53.75;;;11.90;58.30;;;;;;5034757;28;20021;-86
2022/12/22 12:59:56;;;;;;;100.05;49.75;;;11.50;59.80;;;;;;5034294;28;20042;-83
2022/12/22 13:02:30;;;;;;;102.03;52.58;;;11.80;60.10;;;;;;5033974;28;20030;-82
2022/12/22 13:05:14;;;;;;;101.03;52.30;;;11.70;60.70;;;;;;5034139;28;20029;-84
2022/12/22 13:08:07;;;;;;;99.75;48.97;;;12.10;60.00;;;;;;5035348;28;20108;-82
2022/12/22 13:10:42;;;;;;;103.55;49.88;;;12.50;59.00;;;;;;5034221;28;20428;-83
2022/12/22 13:13:34;;;;;;;102.53;50.70;;;12.60;59.00;;;;;;5033596;28;20026;-83
2022/12/22 13:16:03;;;;;;;107.65;51.05;;;12.90;58.40;;;;;;5034104;28;20033;-87
2022/12/22 13:18:34;;;;;;;97.00;50.33;;;13.10;58.20;;;;;;5034182;28;20029;-81
2022/12/22 13:21:02;;;;;;;105.47;53.13;;;13.30;57.50;;;;;;5033460;28;20073;-84
2022/12/22 13:23:34;;;;;;;107.95;54.58;;;13.20;57.10;;;;;;5033867;28;20025;-86
2022/12/22 13:26:04;;;;;;;103.45;49.28;;;12.90;57.50;;;;;;5034154;28;20116;-83
2022/12/22 13:28:30;;;;;;;101.97;51.42;;;12.80;57.80;;;;;;5040042;28;20076;-81
2022/12/22 13:31:00;;;;;;;109.80;53.45;;;12.50;57.70;;;;;;5051297;28;20394;-81
2022/12/22 13:33:30;;;;;;;104.43;50.83;;;12.20;59.00;;;;;;5037387;28;20460;-84
2022/12/22 13:35:57;;;;;;;126.28;60.45;;;12.20;58.50;;;;;;5040007;28;20100;-87
2022/12/22 13:38:33;;;;;;;106.82;53.67;;;12.20;58.60;;;;;;5058053;28;20036;-83
2022/12/22 13:41:02;;;;;;;118.72;55.35;;;12.50;57.60;;;;;;5049733;28;20458;-82
2022/12/22 13:43:29;;;;;;;119.88;58.67;;;12.40;58.20;;;;;;5053916;28;20032;-83
2022/12/22 13:46:00;;;;;;;109.10;51.92;;;12.50;58.20;;;;;;5054778;28;20052;-87
2022/12/22 13:48:36;;;;;;;150.98;60.20;;;12.60;57.80;;;;;;5040042;28;20021;-83
2022/12/22 13:51:04;;;;;;;108.78;52.65;;;12.20;58.10;;;;;;5042400;28;20031;-83
2022/12/22 13:53:46;;;;;;;102.13;50.25;;;12.10;59.10;;;;;;5054112;28;20119;-84
2022/12/22 13:56:19;;;;;;;96.95;47.47;;;12.40;58.50;;;;;;5048651;28;20439;-83
2022/12/22 13:58:49;;;;;;;124.43;54.42;;;12.60;58.10;;;;;;5033112;28;20063;-81
2022/12/22 14:01:18;;;;;;;92.80;47.67;;;12.80;57.40;;;;;;5044313;28;20048;-80
2022/12/22 14:03:55;;;;;;;101.25;48.08;;;12.90;57.10;;;;;;5053044;28;20025;-85
2022/12/22 14:06:27;;;;;;;95.35;46.92;;;12.90;57.00;;;;;;5053131;28;20029;-84
2022/12/22 14:09:08;;;;;;;129.85;55.38;;;13.00;56.60;;;;;;4338271;28;10000706;-81
2022/12/22 14:11:33;;;;;;;94.55;46.35;;;13.00;57.00;;;;;;5045552;28;20110;-80
2022/12/22 14:13:59;;;;;;;98.05;47.85;;;13.10;57.00;;;;;;5049052;28;20108;-81
2022/12/22 14:16:25;;;;;;;96.80;46.75;;;13.10;56.60;;;;;;5089147;28;20059;-83
2022/12/22 14:18:52;;;;;;;102.68;48.10;;;13.10;56.70;;;;;;5068892;28;20379;-82
2022/12/22 14:21:18;;;;;;;142.95;55.70;;;13.00;56.80;;;;;;5042765;28;20456;-83
2022/12/22 14:23:45;;;;;;;113.05;49.60;;;13.10;56.50;;;;;;5052853;28;20033;-80
2022/12/22 14:26:19;;;;;;;89.97;47.08;;;13.30;56.20;;;;;;5050593;28;20479;-84
2022/12/22 14:28:52;;;;;;;205.40;89.65;;;13.30;56.20;;;;;;5054533;28;20045;-83
2022/12/22 14:31:18;;;;;;;141.77;76.60;;;13.40;55.90;;;;;;5052288;28;20036;-81
2022/12/22 14:33:55;;;;;;;157.68;68.10;;;13.30;55.60;;;;;;5048331;28;20064;-83
2022/12/22 14:36:25;;;;;;;112.80;54.28;;;13.20;56.00;;;;;;5052198;28;20468;-83
2022/12/22 14:38:56;;;;;;;166.77;74.60;;;13.10;56.10;;;;;;5048344;28;20116;-85
2022/12/22 14:41:40;;;;;;;201.55;89.95;;;13.00;56.30;;;;;;5031945;28;20045;-83
2022/12/22 14:44:21;;;;;;;251.25;100.13;;;13.00;56.50;;;;;;5046008;28;20053;-82
2022/12/22 14:47:10;;;;;;;229.52;91.65;;;13.10;56.00;;;;;;5050466;28;20028;-83
2022/12/22 14:49:57;;;;;;;243.60;96.65;;;13.00;56.10;;;;;;5050181;28;20021;-84
2022/12/22 14:52:48;;;;;;;233.75;95.35;;;12.90;56.20;;;;;;5051522;28;20139;-82
2022/12/22 14:55:28;;;;;;;160.90;69.15;;;12.90;56.10;;;;;;5051510;28;20475;-83
2022/12/22 14:57:58;;;;;;;164.45;75.20;;;12.90;56.10;;;;;;5051806;28;20431;-82
2022/12/22 15:00:24;;;;;;;167.57;76.85;;;13.00;56.10;;;;;;5050908;28;20048;-83
2022/12/22 15:02:55;;;;;;;192.50;87.05;;;13.00;55.80;;;;;;5048796;28;20056;-81
2022/12/22 15:05:37;;;;;;;154.10;71.00;;;13.00;55.80;;;;;;5048883;28;20033;-83
2022/12/22 15:08:06;;;;;;;171.50;75.82;;;13.00;55.80;;;;;;5049245;28;20040;-82
2022/12/22 15:10:40;;;;;;;195.80;78.57;;;13.00;56.00;;;;;;5082412;28;20456;-83
2022/12/22 15:13:12;;;;;;;167.88;74.65;;;12.90;56.00;;;;;;5051936;28;20089;-81
2022/12/22 15:15:37;;;;;;;148.98;69.47;;;12.80;56.30;;;;;;5049672;28;20025;-84
2022/12/22 15:18:03;;;;;;;146.77;70.72;;;12.60;56.70;;;;;;5050470;28;20340;-83
2022/12/22 15:20:29;;;;;;;140.15;67.97;;;12.80;56.50;;;;;;5050693;28;20037;-83
2022/12/22 15:22:55;;;;;;;123.38;62.53;;;12.80;56.50;;;;;;5042612;28;20114;-82
2022/12/22 15:25:22;;;;;;;126.93;58.80;;;12.80;56.20;;;;;;5030143;28;20123;-82
2022/12/22 15:27:49;;;;;;;154.63;73.90;;;12.50;56.40;;;;;;5032212;28;20025;-83
2022/12/22 15:30:20;;;;;;;131.32;62.53;;;12.40;57.20;;;;;;5040915;28;20021;-86
2022/12/22 15:32:47;;;;;;;116.80;56.67;;;12.40;56.80;;;;;;5051205;28;20175;-82
2022/12/22 15:35:19;;;;;;;99.40;49.00;;;12.50;56.70;;;;;;5050921;28;20040;-83
2022/12/22 15:37:45;;;;;;;139.65;67.18;;;12.30;57.20;;;;;;5066698;28;20065;-81
2022/12/22 15:40:16;;;;;;;110.80;53.58;;;12.40;57.30;;;;;;5067918;28;20468;-82
2022/12/22 15:42:42;;;;;;;97.88;49.03;;;12.50;57.00;;;;;;5067665;28;20018;-80
2022/12/22 15:45:07;;;;;;;121.28;64.40;;;12.50;56.50;;;;;;5055243;28;20112;-83
2022/12/22 15:47:33;;;;;;;136.10;71.20;;;12.30;56.90;;;;;;5051910;28;20409;-84
2022/12/22 15:49:59;;;;;;;121.82;59.58;;;11.90;57.70;;;;;;5051368;28;20033;-82
2022/12/22 15:52:25;;;;;;;112.30;59.25;;;11.70;58.40;;;;;;5049046;28;20116;-86
2022/12/22 15:54:51;;;;;;;140.23;68.97;;;11.50;59.00;;;;;;5051910;28;20023;-83
2022/12/22 15:57:16;;;;;;;113.90;55.20;;;11.70;58.90;;;;;;5053675;28;20406;-83
2022/12/22 15:59:42;;;;;;;106.88;53.70;;;12.00;58.40;;;;;;5042652;28;20040;-83
2022/12/22 16:02:12;;;;;;;104.97;52.20;;;12.20;58.20;;;;;;5055749;28;20048;-89
2022/12/22 16:04:45;;;;;;;113.03;51.85;;;12.40;57.30;;;;;;5055543;28;20024;-83
2022/12/22 16:07:11;;;;;;;106.75;51.60;;;12.40;57.60;;;;;;5055448;28;20036;-83
2022/12/22 16:09:44;;;;;;;103.82;48.63;;;12.40;57.30;;;;;;5055196;28;20021;-84
2022/12/22 16:12:15;;;;;;;117.53;55.47;;;12.40;57.90;;;;;;5054866;28;20365;-84
2022/12/22 16:14:43;;;;;;;181.80;79.25;;;12.60;57.40;;;;;;5055315;28;20108;-83
2022/12/22 16:17:21;;;;;;;260.38;94.65;;;12.70;56.80;;;;;;5055428;28;20522;-82
2022/12/22 16:19:47;;;;;;;272.90;108.40;;;12.70;57.30;;;;;;5056341;28;20033;-84